Time;durP1;ratioP1;P1;durP2;ratioP2;P2;SDS_P1;SDS_P2;PMS_P1;PMS_P2;Temp;Humidity;BMP_temperature;BMP_pressure;BME280_temperature;BME280_humidity;BME280_pressure;Samples;Min_cycle;Max_cycle;Signal;HPM_P1;HPM_P2
2022/06/22 00:01:13;;;;;;;19.10;12.27;;;12.50;99.90;;;;;;5044749;28;19928;-68
2022/06/22 00:03:40;;;;;;;18.08;11.85;;;12.50;99.90;;;;;;5048701;28;20049;-67
2022/06/22 00:06:06;;;;;;;18.85;13.27;;;12.60;99.90;;;;;;5049685;28;20055;-67
2022/06/22 00:08:37;;;;;;;22.33;13.45;;;12.60;99.90;;;;;;5050903;28;20045;-67
2022/06/22 00:11:15;;;;;;;20.83;13.77;;;12.50;99.90;;;;;;5041477;28;20045;-68
2022/06/22 00:13:52;;;;;;;19.75;14.30;;;12.50;99.90;;;;;;5050129;28;20448;-68
2022/06/22 00:16:26;;;;;;;21.88;14.02;;;12.50;99.90;;;;;;5041960;28;20064;-68
2022/06/22 00:18:52;;;;;;;21.80;12.93;;;12.40;99.90;;;;;;5052737;28;20495;-68
2022/06/22 00:21:41;;;;;;;21.17;13.15;;;12.40;99.90;;;;;;5053284;28;20040;-68
2022/06/22 00:24:38;;;;;;;22.90;13.98;;;12.40;99.90;;;;;;5049948;28;20120;-68
2022/06/22 00:27:37;;;;;;;19.48;12.73;;;12.50;99.90;;;;;;5036876;28;20049;-68
2022/06/22 00:30:11;;;;;;;22.40;12.57;;;12.60;99.90;;;;;;5042955;28;20056;-68
2022/06/22 00:32:37;;;;;;;22.75;14.63;;;12.50;99.90;;;;;;5050487;28;20430;-68
2022/06/22 00:35:33;;;;;;;20.48;13.18;;;12.50;99.90;;;;;;5052776;28;20041;-67
2022/06/22 00:37:59;;;;;;;20.50;14.75;;;12.50;99.90;;;;;;5048915;28;20049;-68
2022/06/22 00:40:25;;;;;;;20.75;14.23;;;12.50;99.90;;;;;;5041748;28;20845;-68
2022/06/22 00:42:55;;;;;;;18.60;12.82;;;12.50;99.90;;;;;;5042871;28;20399;-67
2022/06/22 00:45:29;;;;;;;16.05;12.55;;;12.50;99.90;;;;;;5040999;28;20081;-68
2022/06/22 00:47:59;;;;;;;19.33;13.98;;;12.50;99.90;;;;;;5042183;28;20116;-68
2022/06/22 00:50:40;;;;;;;20.30;14.20;;;12.50;99.90;;;;;;5048626;28;20049;-67
2022/06/22 00:53:26;;;;;;;20.70;12.38;;;12.50;99.90;;;;;;5042302;28;20037;-68
2022/06/22 00:56:16;;;;;;;20.00;13.00;;;12.80;99.90;;;;;;5040621;28;20055;-68
2022/06/22 00:58:47;;;;;;;17.30;12.55;;;12.40;99.90;;;;;;5031321;28;20068;-67
2022/06/22 01:01:30;;;;;;;17.85;13.65;;;12.30;99.90;;;;;;5041610;28;20166;-68
2022/06/22 01:03:59;;;;;;;16.67;11.50;;;12.30;99.90;;;;;;5049558;28;20480;-67
2022/06/22 01:06:29;;;;;;;20.50;13.35;;;12.30;99.90;;;;;;5046392;28;20053;-68
2022/06/22 01:09:07;;;;;;;19.75;12.73;;;12.30;99.90;;;;;;5049941;28;20434;-68
2022/06/22 01:14:56;;;;;;;24.15;13.68;;;12.10;99.90;;;;;;5043851;28;20060;-68
2022/06/22 01:17:45;;;;;;;23.50;14.68;;;12.00;99.90;;;;;;5048382;28;20506;-68
2022/06/22 01:20:11;;;;;;;18.00;13.37;;;12.00;99.90;;;;;;5037305;28;20125;-68
2022/06/22 01:23:04;;;;;;;26.05;14.73;;;11.90;99.90;;;;;;5050080;28;20379;-68
2022/06/22 01:25:51;;;;;;;22.02;14.10;;;11.90;99.90;;;;;;5043214;28;20057;-68
2022/06/22 01:28:18;;;;;;;25.67;13.98;;;11.80;99.90;;;;;;5046955;28;20112;-68
2022/06/22 01:30:55;;;;;;;21.65;14.52;;;11.80;99.90;;;;;;5044130;28;20039;-68
2022/06/22 01:33:35;;;;;;;23.25;14.65;;;11.80;99.90;;;;;;5050265;28;20048;-68
2022/06/22 01:36:30;;;;;;;19.27;13.75;;;11.80;99.90;;;;;;5045482;28;20479;-68
2022/06/22 01:38:56;;;;;;;21.90;13.82;;;11.80;99.90;;;;;;5046292;28;20106;-68
2022/06/22 01:41:46;;;;;;;24.77;16.35;;;11.70;99.90;;;;;;5042112;28;20069;-68
2022/06/22 01:44:40;;;;;;;24.70;15.98;;;11.70;99.90;;;;;;5044588;28;20131;-68
2022/06/22 01:47:29;;;;;;;19.65;13.75;;;11.70;99.90;;;;;;5045529;28;20041;-68
2022/06/22 01:50:01;;;;;;;20.02;13.50;;;11.60;99.90;;;;;;5042093;28;20068;-68
2022/06/22 01:52:51;;;;;;;20.58;13.63;;;11.60;99.90;;;;;;5049641;28;20115;-68
2022/06/22 01:55:46;;;;;;;;;;;11.60;99.90;;;;;;5043427;28;20407;-68
2022/06/22 01:58:14;;;;;;;19.52;13.52;;;11.60;99.90;;;;;;5035335;28;19925;-68
2022/06/22 02:00:42;;;;;;;20.83;13.85;;;11.60;99.90;;;;;;5049459;28;20044;-68
2022/06/22 02:03:41;;;;;;;19.08;12.38;;;11.50;99.90;;;;;;5051021;28;20056;-68
2022/06/22 02:08:59;;;;;;;;;;;11.50;99.90;;;;;;5051111;28;20044;-68
2022/06/22 02:11:32;;;;;;;22.33;13.18;;;11.50;99.90;;;;;;5045032;28;20289;-67
2022/06/22 02:14:03;;;;;;;19.85;14.27;;;11.50;99.90;;;;;;5051062;28;20044;-68
2022/06/22 02:16:41;;;;;;;29.25;14.32;;;11.50;99.90;;;;;;5037538;28;20518;-68
2022/06/22 02:19:14;;;;;;;20.83;14.45;;;11.50;99.90;;;;;;5039382;28;20053;-68
2022/06/22 02:21:46;;;;;;;20.58;14.07;;;11.50;99.90;;;;;;5046569;28;20134;-68
2022/06/22 02:24:37;;;;;;;18.55;13.38;;;11.50;99.90;;;;;;5046266;28;20417;-67
2022/06/22 02:27:22;;;;;;;25.58;14.90;;;11.60;99.90;;;;;;5041277;28;20656;-68
2022/06/22 02:29:53;;;;;;;25.92;15.00;;;11.50;99.90;;;;;;5046667;28;20441;-69
2022/06/22 02:32:23;;;;;;;22.70;15.55;;;11.50;99.90;;;;;;5039535;28;20041;-68
2022/06/22 02:34:51;;;;;;;20.25;13.43;;;11.50;99.90;;;;;;5041954;28;20077;-68
2022/06/22 02:37:19;;;;;;;21.55;12.43;;;11.50;99.90;;;;;;5042992;28;20439;-68
2022/06/22 02:39:48;;;;;;;17.65;11.77;;;11.40;99.90;;;;;;5048126;28;20483;-68
2022/06/22 02:45:00;;;;;;;20.33;12.95;;;11.40;99.90;;;;;;5036059;28;20041;-68
2022/06/22 02:47:31;;;;;;;20.33;12.70;;;11.40;99.90;;;;;;5044471;28;20144;-67
2022/06/22 02:50:17;;;;;;;23.90;13.10;;;11.40;99.90;;;;;;5046626;28;20043;-68
2022/06/22 02:52:58;;;;;;;20.77;12.80;;;11.40;99.90;;;;;;5041932;28;20045;-68
2022/06/22 02:55:27;;;;;;;20.25;12.85;;;11.40;99.90;;;;;;5046627;28;20140;-68
2022/06/22 02:57:57;;;;;;;16.35;12.48;;;11.40;99.90;;;;;;5042014;28;20055;-67
2022/06/22 03:00:27;;;;;;;20.95;12.20;;;11.30;99.90;;;;;;5051668;28;20125;-68
2022/06/22 03:03:01;;;;;;;19.98;13.30;;;11.30;99.90;;;;;;5051272;28;20178;-68
2022/06/22 03:05:27;;;;;;;19.08;12.63;;;11.40;99.90;;;;;;5058269;28;20057;-67
2022/06/22 03:07:58;;;;;;;19.98;12.70;;;11.30;99.90;;;;;;5050826;28;20407;-68
2022/06/22 03:10:29;;;;;;;18.48;12.10;;;11.30;99.90;;;;;;5047351;28;20076;-67
2022/06/22 03:12:57;;;;;;;15.82;11.70;;;11.30;99.90;;;;;;5041818;28;20072;-67
2022/06/22 03:15:27;;;;;;;16.73;11.23;;;11.40;99.90;;;;;;5046487;28;20457;-68
2022/06/22 03:17:56;;;;;;;16.58;11.65;;;11.30;99.90;;;;;;5040340;28;20049;-68
2022/06/22 03:20:26;;;;;;;21.80;13.45;;;11.40;99.90;;;;;;5050939;28;20033;-68
2022/06/22 03:22:57;;;;;;;18.75;12.45;;;11.40;99.90;;;;;;5051058;28;20048;-68
2022/06/22 03:26:05;;;;;;;30.13;14.18;;;11.30;99.90;;;;;;5052767;28;20049;-68
2022/06/22 03:28:38;;;;;;;17.52;12.05;;;11.40;99.90;;;;;;5028415;28;20477;-68
2022/06/22 03:31:08;;;;;;;17.42;11.70;;;11.40;99.90;;;;;;5009620;28;20419;-68
2022/06/22 03:33:44;;;;;;;17.25;11.13;;;11.40;99.90;;;;;;5036630;28;20057;-67
2022/06/22 03:36:23;;;;;;;17.55;12.00;;;11.40;99.90;;;;;;5050276;28;20856;-68
2022/06/22 03:38:55;;;;;;;20.45;13.73;;;11.50;99.90;;;;;;5052559;28;20099;-68
2022/06/22 03:41:26;;;;;;;18.58;13.18;;;11.60;99.90;;;;;;5047173;28;20131;-68
2022/06/22 03:44:04;;;;;;;15.38;12.27;;;11.60;99.90;;;;;;5038885;28;20049;-67
2022/06/22 03:46:40;;;;;;;19.17;13.33;;;11.50;99.90;;;;;;5042495;28;20071;-68
2022/06/22 03:49:21;;;;;;;16.73;11.98;;;11.50;99.90;;;;;;5048225;28;20295;-67
2022/06/22 03:51:57;;;;;;;22.55;14.02;;;11.60;99.90;;;;;;5047747;28;20128;-68
2022/06/22 03:54:28;;;;;;;20.40;13.70;;;11.50;99.90;;;;;;5067440;28;20056;-67
2022/06/22 03:56:57;;;;;;;18.77;14.02;;;11.50;99.90;;;;;;5044417;28;20033;-68
2022/06/22 03:59:24;;;;;;;21.52;13.60;;;11.50;99.90;;;;;;5039400;28;20045;-68
2022/06/22 04:01:50;;;;;;;17.88;13.00;;;11.50;99.90;;;;;;5056189;28;20097;-67
2022/06/22 04:04:16;;;;;;;15.82;11.35;;;11.50;99.90;;;;;;5044643;28;20088;-68
2022/06/22 04:06:47;;;;;;;19.85;13.20;;;11.50;99.90;;;;;;5043622;28;20084;-67
2022/06/22 04:09:20;;;;;;;18.88;12.10;;;11.50;99.90;;;;;;5045415;28;20085;-68
2022/06/22 04:11:48;;;;;;;18.25;12.55;;;11.50;99.90;;;;;;5043183;28;20033;-68
2022/06/22 04:14:16;;;;;;;19.92;10.68;;;11.60;99.90;;;;;;5053115;28;20160;-68
2022/06/22 04:16:57;;;;;;;17.52;12.32;;;11.60;99.90;;;;;;5046269;28;20045;-68
2022/06/22 04:19:32;;;;;;;17.17;11.45;;;11.60;99.90;;;;;;5053584;28;20048;-68
2022/06/22 04:22:04;;;;;;;19.80;11.48;;;11.70;99.90;;;;;;5044510;28;20116;-67
2022/06/22 04:24:36;;;;;;;16.98;12.25;;;11.70;99.90;;;;;;5038168;28;20053;-68
2022/06/22 04:27:20;;;;;;;18.52;11.88;;;11.80;99.90;;;;;;5039726;28;20517;-68
2022/06/22 04:29:48;;;;;;;17.00;11.90;;;11.80;99.90;;;;;;5050698;28;20037;-68
2022/06/22 04:32:13;;;;;;;20.88;14.38;;;11.90;99.90;;;;;;5045115;28;20041;-68
2022/06/22 04:35:03;;;;;;;18.30;12.35;;;11.90;99.90;;;;;;5048196;28;20517;-69
2022/06/22 04:37:48;;;;;;;18.60;12.65;;;12.00;99.90;;;;;;5047597;28;20051;-68
2022/06/22 04:40:21;;;;;;;23.40;13.93;;;12.10;99.90;;;;;;5036436;28;20510;-67
2022/06/22 04:42:48;;;;;;;19.08;12.93;;;12.20;99.90;;;;;;5044637;28;20139;-67
2022/06/22 04:45:35;;;;;;;19.08;11.63;;;12.30;99.90;;;;;;5042738;28;20483;-68
2022/06/22 04:48:06;;;;;;;18.08;11.73;;;12.30;99.90;;;;;;5039165;28;20840;-68
2022/06/22 04:50:36;;;;;;;17.40;12.15;;;12.30;99.90;;;;;;5046551;28;20045;-67
2022/06/22 04:53:02;;;;;;;18.17;12.45;;;12.40;99.90;;;;;;5051698;28;20055;-67
2022/06/22 04:55:30;;;;;;;20.73;12.68;;;12.40;99.90;;;;;;5046787;28;20045;-68
2022/06/22 04:58:02;;;;;;;23.02;12.25;;;12.50;99.90;;;;;;5044797;28;20542;-68
2022/06/22 05:00:31;;;;;;;16.92;11.73;;;12.60;99.90;;;;;;5034096;28;20045;-67
2022/06/22 05:03:07;;;;;;;20.23;11.75;;;12.80;99.90;;;;;;5034982;28;20045;-68
2022/06/22 05:05:34;;;;;;;15.93;10.65;;;13.00;99.90;;;;;;5059814;28;20044;-68
2022/06/22 05:08:21;;;;;;;18.10;10.60;;;13.00;99.90;;;;;;5054237;28;20501;-67
2022/06/22 05:11:02;;;;;;;17.42;9.98;;;13.20;99.90;;;;;;5046846;28;20152;-67
2022/06/22 05:13:38;;;;;;;18.33;10.18;;;13.30;99.90;;;;;;5040514;28;20055;-67
2022/06/22 05:16:08;;;;;;;13.38;9.75;;;13.30;99.90;;;;;;5042604;28;20039;-68
2022/06/22 05:18:37;;;;;;;21.00;10.38;;;13.30;99.90;;;;;;5048055;28;20040;-68
2022/06/22 05:21:08;;;;;;;16.67;10.60;;;13.30;99.90;;;;;;5046819;28;20037;-68
2022/06/22 05:23:34;;;;;;;16.35;10.73;;;13.40;99.90;;;;;;5046461;28;20036;-68
2022/06/22 05:26:06;;;;;;;13.52;10.15;;;13.40;99.90;;;;;;5050502;28;20172;-66
2022/06/22 05:28:39;;;;;;;15.98;9.80;;;13.50;99.90;;;;;;5049670;28;20080;-69
2022/06/22 05:31:12;;;;;;;13.23;9.68;;;13.60;99.90;;;;;;5045502;28;20130;-68
2022/06/22 05:33:42;;;;;;;14.18;9.90;;;13.80;99.90;;;;;;5036339;28;20053;-68
2022/06/22 05:36:12;;;;;;;15.85;9.85;;;13.80;99.90;;;;;;5052961;28;20068;-67
2022/06/22 05:38:44;;;;;;;16.13;10.73;;;13.80;99.90;;;;;;5045285;28;20882;-68
2022/06/22 05:41:27;;;;;;;15.65;9.50;;;13.90;99.90;;;;;;5052788;28;20044;-67
2022/06/22 05:43:57;;;;;;;14.00;8.77;;;14.00;99.90;;;;;;5049079;28;20478;-68
2022/06/22 05:46:23;;;;;;;15.23;10.52;;;14.10;99.90;;;;;;5038878;28;20128;-68
2022/06/22 05:48:50;;;;;;;15.57;10.23;;;14.20;99.90;;;;;;5055323;28;20141;-68
2022/06/22 05:51:25;;;;;;;15.27;10.32;;;14.20;99.90;;;;;;5031303;28;20073;-68
2022/06/22 05:54:12;;;;;;;16.45;9.45;;;14.30;99.90;;;;;;5042953;28;20048;-68
2022/06/22 05:56:46;;;;;;;17.92;9.60;;;14.40;99.90;;;;;;5040269;28;20062;-68
2022/06/22 05:59:29;;;;;;;13.57;9.23;;;14.50;99.90;;;;;;5052078;28;20041;-69
2022/06/22 06:02:13;;;;;;;14.45;8.93;;;14.60;99.90;;;;;;5044521;28;20038;-68
2022/06/22 06:04:50;;;;;;;19.80;7.88;;;14.80;99.90;;;;;;5040174;28;20053;-68
2022/06/22 06:07:21;;;;;;;21.13;8.00;;;14.90;99.90;;;;;;5047240;28;20037;-69
2022/06/22 06:09:47;;;;;;;15.48;7.40;;;14.90;99.90;;;;;;5052461;28;20036;-67
2022/06/22 06:12:29;;;;;;;13.27;7.75;;;15.10;99.90;;;;;;5048219;28;20044;-70
2022/06/22 06:14:55;;;;;;;12.95;6.38;;;15.20;99.90;;;;;;5044187;28;20044;-68
2022/06/22 06:17:27;;;;;;;15.23;5.55;;;15.60;99.90;;;;;;5047205;28;20071;-67
2022/06/22 06:19:54;;;;;;;11.02;5.72;;;15.80;99.90;;;;;;5051664;28;20514;-67
2022/06/22 06:22:22;;;;;;;11.13;5.90;;;15.90;99.90;;;;;;5050886;28;20029;-68
2022/06/22 06:27:42;;;;;;;11.88;4.93;;;15.90;99.90;;;;;;5032513;28;20054;-68
2022/06/22 06:30:29;;;;;;;10.30;4.20;;;15.90;99.90;;;;;;5042992;28;20037;-69
2022/06/22 06:33:24;;;;;;;10.55;4.78;;;16.10;99.90;;;;;;5034346;28;20049;-67
2022/06/22 06:36:01;;;;;;;10.20;5.22;;;16.10;99.90;;;;;;5032386;28;20041;-66
2022/06/22 06:38:40;;;;;;;8.40;4.65;;;16.20;99.90;;;;;;5047921;28;20376;-67
2022/06/22 06:41:33;;;;;;;10.15;4.25;;;16.20;99.90;;;;;;5045021;28;20628;-69
2022/06/22 06:44:20;;;;;;;9.45;5.25;;;16.40;99.90;;;;;;5045054;28;20124;-68
2022/06/22 06:46:53;;;;;;;13.65;4.32;;;16.50;99.90;;;;;;5038403;28;20123;-68
2022/06/22 06:49:40;;;;;;;11.82;4.47;;;16.50;99.90;;;;;;5052944;28;20052;-68
2022/06/22 06:52:33;;;;;;;14.38;5.07;;;16.70;99.90;;;;;;5050737;28;20049;-68
2022/06/22 06:55:15;;;;;;;9.23;4.82;;;16.80;99.90;;;;;;5041518;28;20376;-68
2022/06/22 06:57:55;;;;;;;13.07;5.00;;;16.80;99.90;;;;;;5048985;28;20391;-68
2022/06/22 07:00:21;;;;;;;12.27;5.25;;;16.90;99.90;;;;;;5039748;28;20118;-67
2022/06/22 07:02:47;;;;;;;10.85;4.05;;;17.10;99.90;;;;;;5052123;28;20483;-68
2022/06/22 07:05:18;;;;;;;11.93;4.95;;;17.10;99.90;;;;;;5051174;28;20111;-67
2022/06/22 07:07:47;;;;;;;8.90;4.35;;;17.30;99.90;;;;;;5043004;28;20119;-66
2022/06/22 07:10:21;;;;;;;13.57;5.32;;;17.30;99.90;;;;;;5050446;28;20356;-67
2022/06/22 07:12:56;;;;;;;16.23;5.25;;;17.40;99.90;;;;;;5056285;28;20344;-68
2022/06/22 07:15:28;;;;;;;11.18;4.70;;;17.40;99.90;;;;;;5048182;28;20084;-69
2022/06/22 07:17:56;;;;;;;14.20;4.75;;;17.40;99.90;;;;;;5048985;28;20099;-68
2022/06/22 07:20:27;;;;;;;11.55;5.18;;;17.60;99.90;;;;;;5050382;28;20045;-67
2022/06/22 07:23:12;;;;;;;8.43;4.88;;;17.60;99.90;;;;;;5050761;28;20073;-68
2022/06/22 07:25:51;;;;;;;14.30;5.85;;;17.70;99.90;;;;;;5045997;28;20502;-68
2022/06/22 07:28:23;;;;;;;11.07;4.82;;;17.70;99.90;;;;;;5051747;28;20053;-69
2022/06/22 07:31:12;;;;;;;9.43;3.92;;;17.80;99.90;;;;;;5045874;28;20049;-67
2022/06/22 07:33:51;;;;;;;13.20;4.63;;;17.90;99.90;;;;;;5034192;28;20060;-68
2022/06/22 07:36:20;;;;;;;;;;;18.00;99.90;;;;;;5044904;28;20478;-66
2022/06/22 07:38:54;;;;;;;;;;;17.90;99.90;;;;;;5047636;28;19920;-67
2022/06/22 07:41:25;;;;;;;10.40;4.50;;;18.00;99.90;;;;;;5044368;28;19929;-68
2022/06/22 07:44:00;;;;;;;13.23;4.60;;;18.10;99.90;;;;;;5044256;28;20053;-68
2022/06/22 07:46:28;;;;;;;10.52;4.43;;;18.10;99.90;;;;;;5042160;28;20506;-67
2022/06/22 07:49:01;;;;;;;11.05;4.10;;;18.40;99.90;;;;;;5048421;28;20503;-68
2022/06/22 07:51:30;;;;;;;9.05;3.50;;;18.60;99.90;;;;;;5046937;28;20439;-68
2022/06/22 07:54:03;;;;;;;12.10;4.20;;;18.80;99.90;;;;;;5048095;28;20048;-68
2022/06/22 07:56:41;;;;;;;8.00;4.38;;;18.90;99.90;;;;;;5045995;28;20076;-67
2022/06/22 07:59:12;;;;;;;6.90;4.10;;;19.10;99.90;;;;;;5048009;28;20053;-66
2022/06/22 08:01:43;;;;;;;9.05;3.75;;;19.10;99.90;;;;;;5043055;28;20048;-68
2022/06/22 08:04:17;;;;;;;12.18;4.00;;;19.10;99.90;;;;;;5046287;28;20129;-67
2022/06/22 08:07:17;;;;;;;8.82;3.67;;;19.10;99.90;;;;;;5063427;28;20049;-66
2022/06/22 08:09:57;;;;;;;7.28;3.78;;;19.10;99.90;;;;;;5052028;28;20159;-68
2022/06/22 08:12:30;;;;;;;7.82;3.50;;;19.10;99.90;;;;;;5044717;28;20048;-67
2022/06/22 08:14:56;;;;;;;8.32;4.38;;;19.30;99.90;;;;;;5049102;28;20087;-67
2022/06/22 08:17:30;;;;;;;6.78;3.33;;;19.40;99.90;;;;;;5050227;28;20602;-68
2022/06/22 08:19:57;;;;;;;9.40;4.50;;;19.50;99.90;;;;;;5048665;28;20045;-68
2022/06/22 08:22:23;;;;;;;12.35;4.28;;;19.60;99.90;;;;;;5066265;28;20120;-67
2022/06/22 08:24:52;;;;;;;12.75;5.45;;;19.80;99.90;;;;;;5051423;28;20462;-67
2022/06/22 08:27:20;;;;;;;11.75;4.60;;;19.80;99.00;;;;;;5049544;28;20049;-65
2022/06/22 08:29:48;;;;;;;14.27;4.30;;;19.70;99.90;;;;;;5049536;28;20095;-68
2022/06/22 08:32:20;;;;;;;9.02;4.88;;;19.60;99.90;;;;;;5046461;28;20423;-66
2022/06/22 08:34:53;;;;;;;11.02;4.50;;;19.80;99.90;;;;;;5051885;28;20079;-67
2022/06/22 08:37:33;;;;;;;11.38;5.50;;;19.80;99.70;;;;;;5048379;28;20714;-66
2022/06/22 08:40:23;;;;;;;9.63;5.15;;;19.80;99.90;;;;;;5043818;28;20099;-66
2022/06/22 08:42:58;;;;;;;13.40;6.15;;;19.90;99.90;;;;;;5041027;28;20603;-66
2022/06/22 08:46:01;;;;;;;15.50;5.47;;;20.00;99.90;;;;;;5047980;28;20103;-65
2022/06/22 08:49:02;;;;;;;18.70;6.22;;;20.10;99.90;;;;;;5065076;28;20044;-67
2022/06/22 08:51:43;;;;;;;10.30;6.00;;;19.90;99.70;;;;;;5051804;28;20056;-67
2022/06/22 08:54:50;;;;;;;10.95;5.40;;;19.70;99.90;;;;;;5044912;28;20126;-68
2022/06/22 08:57:38;;;;;;;16.63;6.53;;;19.80;99.90;;;;;;5047214;28;20491;-67
2022/06/22 09:00:18;;;;;;;12.93;6.30;;;20.00;99.90;;;;;;5042752;28;20652;-65
2022/06/22 09:03:16;;;;;;;14.00;5.70;;;19.90;99.90;;;;;;5047611;28;20303;-67
2022/06/22 09:06:00;;;;;;;10.43;5.47;;;19.90;99.90;;;;;;5043521;28;20079;-69
2022/06/22 09:08:47;;;;;;;12.15;5.50;;;19.80;99.90;;;;;;5063020;28;20047;-68
2022/06/22 09:11:33;;;;;;;17.85;5.93;;;19.80;99.90;;;;;;5046882;28;20040;-67
2022/06/22 09:14:08;;;;;;;11.13;5.97;;;19.80;99.90;;;;;;5047415;28;20069;-67
2022/06/22 09:17:02;;;;;;;10.95;5.40;;;19.80;99.90;;;;;;5042072;28;20041;-66
2022/06/22 09:19:48;;;;;;;10.10;5.93;;;19.80;99.90;;;;;;5051113;28;20047;-67
2022/06/22 09:22:23;;;;;;;17.13;5.97;;;19.70;99.90;;;;;;5047099;28;20041;-66
2022/06/22 09:25:02;;;;;;;14.77;5.45;;;19.80;99.90;;;;;;5047016;28;20084;-67
2022/06/22 09:27:58;;;;;;;9.57;5.03;;;20.00;99.90;;;;;;5047842;28;20084;-67
2022/06/22 09:30:32;;;;;;;10.45;4.75;;;20.20;99.80;;;;;;5045141;28;20132;-66
2022/06/22 09:33:37;;;;;;;8.73;4.53;;;20.30;99.20;;;;;;5042078;28;20072;-65
2022/06/22 09:36:37;;;;;;;16.95;4.95;;;20.50;96.80;;;;;;5035340;28;20062;-66
2022/06/22 09:39:35;;;;;;;12.38;4.75;;;20.50;96.40;;;;;;5046956;28;20041;-66
2022/06/22 09:42:11;;;;;;;9.80;5.03;;;20.50;97.00;;;;;;5043649;28;20045;-68
2022/06/22 09:44:49;;;;;;;15.32;4.70;;;20.60;97.20;;;;;;5043107;28;20494;-66
2022/06/22 09:47:21;;;;;;;8.00;4.38;;;20.70;97.10;;;;;;5062546;28;20037;-67
2022/06/22 09:50:02;;;;;;;9.27;4.60;;;20.90;96.00;;;;;;5047990;28;20402;-67
2022/06/22 09:52:49;;;;;;;12.07;4.20;;;20.80;95.40;;;;;;5046841;28;20041;-68
2022/06/22 09:58:29;;;;;;;8.15;4.15;;;20.70;95.60;;;;;;5046292;28;20509;-68
2022/06/22 10:01:10;;;;;;;8.15;4.03;;;20.90;96.80;;;;;;5063192;28;20618;-68
2022/06/22 10:03:51;;;;;;;7.43;3.50;;;21.10;94.90;;;;;;5044782;28;20064;-68
2022/06/22 10:06:41;;;;;;;8.45;3.75;;;21.20;96.00;;;;;;5049959;28;20048;-66
2022/06/22 10:09:52;;;;;;;11.55;4.25;;;21.40;94.80;;;;;;5045507;28;20045;-67
2022/06/22 10:12:43;;;;;;;10.25;4.60;;;21.50;94.10;;;;;;5046047;28;20040;-68
2022/06/22 10:15:41;;;;;;;10.38;4.18;;;21.50;94.20;;;;;;5048260;28;20049;-69
2022/06/22 10:18:14;;;;;;;11.02;5.57;;;21.70;94.10;;;;;;5047286;28;20040;-67
2022/06/22 10:21:10;;;;;;;11.45;4.75;;;21.70;94.40;;;;;;5060437;28;20044;-68
2022/06/22 10:23:54;;;;;;;12.30;5.20;;;21.70;95.00;;;;;;5042423;28;20465;-67
2022/06/22 10:26:57;;;;;;;12.32;5.40;;;21.70;95.30;;;;;;5038485;28;20128;-67
2022/06/22 10:29:33;;;;;;;11.27;5.20;;;21.60;95.30;;;;;;5057537;28;20491;-67
2022/06/22 10:32:26;;;;;;;10.65;5.38;;;21.60;96.20;;;;;;5048575;28;20102;-67
2022/06/22 10:35:06;;;;;;;11.15;4.53;;;21.70;96.00;;;;;;5038998;28;20419;-69
2022/06/22 10:37:53;;;;;;;10.65;5.10;;;22.00;96.20;;;;;;5057027;28;20116;-67
2022/06/22 10:46:38;;;;;;;10.45;5.03;;;22.80;94.00;;;;;;5046602;28;20057;-68
2022/06/22 10:49:29;;;;;;;10.93;4.40;;;22.90;92.60;;;;;;5041422;28;20041;-68
2022/06/22 10:52:17;;;;;;;13.70;4.88;;;22.80;94.50;;;;;;5041408;28;20041;-68
2022/06/22 10:55:10;;;;;;;8.93;4.55;;;23.00;93.50;;;;;;5044760;28;20037;-68
2022/06/22 10:57:48;;;;;;;12.15;4.50;;;23.10;92.60;;;;;;5052022;28;20048;-67
2022/06/22 11:00:28;;;;;;;13.73;4.32;;;23.20;92.10;;;;;;5043340;28;20045;-67
2022/06/22 11:03:15;;;;;;;12.48;4.60;;;23.10;92.00;;;;;;5042730;28;20048;-68
2022/06/22 11:06:09;;;;;;;11.55;4.40;;;23.00;92.60;;;;;;5049132;28;20048;-68
2022/06/22 11:08:48;;;;;;;12.80;4.70;;;22.70;92.20;;;;;;5046815;28;20045;-68
2022/06/22 11:11:53;;;;;;;8.80;4.25;;;22.70;93.50;;;;;;5052415;28;20041;-68
2022/06/22 11:14:18;;;;;;;9.52;3.95;;;23.00;93.60;;;;;;5014121;28;20491;-68
2022/06/22 11:17:03;;;;;;;10.02;4.07;;;23.40;92.50;;;;;;5044638;28;20040;-68
2022/06/22 11:19:32;;;;;;;15.00;4.43;;;23.60;91.30;;;;;;5045314;28;20052;-66
2022/06/22 11:22:16;;;;;;;11.05;4.35;;;23.70;92.00;;;;;;5047953;28;20052;-67
2022/06/22 11:24:57;;;;;;;7.50;3.72;;;23.90;91.20;;;;;;5033030;28;20056;-67
2022/06/22 11:30:56;;;;;;;14.32;5.03;;;24.40;89.00;;;;;;5063617;28;20059;-67
2022/06/22 11:33:49;;;;;;;12.85;4.35;;;24.60;90.30;;;;;;5056791;28;20045;-66
2022/06/22 11:36:45;;;;;;;12.15;4.25;;;24.90;89.50;;;;;;5037913;28;20170;-67
2022/06/22 11:39:29;;;;;;;9.82;4.57;;;25.30;87.00;;;;;;5047066;28;20175;-67
2022/06/22 11:42:26;;;;;;;10.18;4.00;;;25.40;87.10;;;;;;5052108;28;20502;-67
2022/06/22 11:48:10;;;;;;;13.85;3.90;;;25.50;85.80;;;;;;5053560;28;20060;-68
2022/06/22 11:50:35;;;;;;;6.10;3.22;;;25.60;85.00;;;;;;5059213;28;20074;-68
2022/06/22 11:53:08;;;;;;;11.65;4.40;;;25.50;85.90;;;;;;5053771;28;20396;-67
2022/06/22 11:55:40;;;;;;;8.35;3.90;;;25.30;84.10;;;;;;5035792;28;20098;-68
2022/06/22 11:58:37;;;;;;;10.75;3.70;;;25.30;83.90;;;;;;5046611;28;20041;-67
2022/06/22 12:01:12;;;;;;;12.07;4.07;;;25.20;85.20;;;;;;5037218;28;20567;-67
2022/06/22 12:03:57;;;;;;;9.45;4.10;;;25.00;84.50;;;;;;5047879;28;20059;-66
2022/06/22 12:06:30;;;;;;;12.95;4.38;;;24.90;84.40;;;;;;5048711;28;20423;-66
2022/06/22 12:09:30;;;;;;;7.57;3.55;;;24.80;84.00;;;;;;5048429;28;20194;-66
2022/06/22 12:12:25;;;;;;;9.35;3.47;;;24.50;83.30;;;;;;5055088;28;20045;-66
2022/06/22 12:15:17;;;;;;;10.45;4.07;;;24.00;85.90;;;;;;5045751;28;20049;-66
2022/06/22 12:17:52;;;;;;;8.32;3.83;;;24.10;85.20;;;;;;5030550;28;20049;-66
2022/06/22 12:20:38;;;;;;;9.35;4.15;;;24.10;86.70;;;;;;5041537;28;20052;-74
2022/06/22 12:23:49;;;;;;;10.80;3.97;;;24.40;87.40;;;;;;5050324;28;20049;-67
2022/06/22 12:26:53;;;;;;;8.32;3.53;;;24.50;85.50;;;;;;5028927;28;20084;-68
2022/06/22 12:29:30;;;;;;;7.95;3.67;;;24.70;85.50;;;;;;5043222;28;20083;-67
2022/06/22 12:32:14;;;;;;;9.90;4.10;;;24.90;85.80;;;;;;5041521;28;20060;-67
2022/06/22 12:35:32;;;;;;;11.50;4.18;;;25.00;84.90;;;;;;5061386;28;20045;-68
2022/06/22 12:38:11;;;;;;;9.98;3.80;;;25.00;82.10;;;;;;5045747;28;20142;-68
2022/06/22 12:41:01;;;;;;;8.35;3.58;;;25.00;84.40;;;;;;5053185;28;20505;-69
2022/06/22 12:43:58;;;;;;;8.68;4.22;;;25.20;84.50;;;;;;5046657;28;20534;-66
2022/06/22 12:46:47;;;;;;;8.05;4.40;;;25.40;80.90;;;;;;5052833;28;20053;-68
2022/06/22 12:49:35;;;;;;;13.25;3.63;;;24.90;83.10;;;;;;5052323;28;20084;-67
2022/06/22 12:52:07;;;;;;;9.80;3.42;;;24.80;83.80;;;;;;5053680;28;20045;-67
2022/06/22 12:54:44;;;;;;;9.50;3.75;;;24.70;82.90;;;;;;5050204;28;20045;-66
2022/06/22 12:57:15;;;;;;;10.15;3.83;;;24.60;83.40;;;;;;5058334;28;20339;-66
2022/06/22 12:59:51;;;;;;;10.88;3.42;;;24.60;83.40;;;;;;5054837;28;20388;-65
2022/06/22 13:02:20;;;;;;;7.55;3.67;;;24.50;83.70;;;;;;5042592;28;20037;-67
2022/06/22 13:05:00;;;;;;;10.73;3.83;;;24.50;84.10;;;;;;5033649;28;20511;-67
2022/06/22 13:07:26;;;;;;;8.82;3.90;;;24.50;84.60;;;;;;5049618;28;20036;-68
2022/06/22 13:09:52;;;;;;;11.50;4.10;;;24.60;84.70;;;;;;5047096;28;20037;-68
2022/06/22 13:12:29;;;;;;;8.65;4.00;;;24.80;85.30;;;;;;5053931;28;20479;-67
2022/06/22 13:15:05;;;;;;;8.35;3.60;;;25.00;84.80;;;;;;5047792;28;20061;-67
2022/06/22 13:17:47;;;;;;;11.00;3.90;;;25.10;80.70;;;;;;5032115;28;20041;-67
2022/06/22 13:20:18;;;;;;;13.63;3.95;;;24.80;82.50;;;;;;5032454;28;20051;-67
2022/06/22 13:22:47;;;;;;;9.38;4.15;;;25.10;83.70;;;;;;5044942;28;20111;-67
2022/06/22 13:25:36;;;;;;;13.77;3.63;;;25.20;82.80;;;;;;5036415;28;20044;-68
2022/06/22 13:28:26;;;;;;;11.48;3.33;;;25.00;79.70;;;;;;5038052;28;20128;-68
2022/06/22 13:31:00;;;;;;;10.90;4.47;;;24.80;82.30;;;;;;5052178;28;20056;-67
2022/06/22 13:33:41;;;;;;;12.75;5.03;;;25.10;83.20;;;;;;5044338;28;20057;-66
2022/06/22 13:36:09;;;;;;;8.63;5.07;;;25.10;84.60;;;;;;5037071;28;20373;-67
2022/06/22 13:38:59;;;;;;;14.88;6.03;;;25.00;86.50;;;;;;5041764;28;20050;-67
2022/06/22 13:41:25;;;;;;;9.07;5.82;;;24.50;88.20;;;;;;5048431;28;20040;-67
2022/06/22 13:43:56;;;;;;;11.45;5.60;;;24.50;89.60;;;;;;5053608;28;20040;-67
2022/06/22 13:46:28;;;;;;;14.27;6.00;;;24.50;87.70;;;;;;5052535;28;20525;-66
2022/06/22 13:49:36;;;;;;;12.50;6.35;;;24.50;89.20;;;;;;5039210;28;20140;-66
2022/06/22 13:52:15;;;;;;;12.38;4.65;;;24.50;90.70;;;;;;5044436;28;20040;-67
2022/06/22 13:55:09;;;;;;;14.40;5.47;;;24.80;88.40;;;;;;5059214;28;20120;-67
2022/06/22 13:57:41;;;;;;;12.27;5.55;;;24.80;89.00;;;;;;5051410;28;20040;-67
2022/06/22 14:00:24;;;;;;;13.05;5.75;;;24.80;87.80;;;;;;5034142;28;20544;-68